Time;durP1;ratioP1;P1;durP2;ratioP2;P2;SDS_P1;SDS_P2;PMS_P1;PMS_P2;Temp;Humidity;BMP_temperature;BMP_pressure;BME280_temperature;BME280_humidity;BME280_pressure;Samples;Min_cycle;Max_cycle;Signal;HPM_P1;HPM_P2
2022/07/22 00:01:16;;;;;;;10.00;4.22;;;15.80;99.90;;;;;;5084198;28;20126;-80
2022/07/22 00:03:42;;;;;;;10.02;4.65;;;15.80;99.90;;;;;;5075787;28;20173;-81
2022/07/22 00:06:07;;;;;;;9.63;4.30;;;15.70;99.90;;;;;;5094603;28;20379;-80
2022/07/22 00:08:36;;;;;;;10.38;4.03;;;15.80;99.90;;;;;;5092410;28;20085;-80
2022/07/22 00:11:01;;;;;;;14.77;4.53;;;15.80;99.90;;;;;;5085547;28;20489;-81
2022/07/22 00:13:27;;;;;;;11.98;5.38;;;15.80;99.90;;;;;;5093547;28;20490;-80
2022/07/22 00:15:53;;;;;;;9.93;4.82;;;15.80;99.90;;;;;;5091568;28;20484;-81
2022/07/22 00:18:18;;;;;;;14.18;5.13;;;15.80;99.90;;;;;;5088150;28;20043;-81
2022/07/22 00:20:44;;;;;;;14.20;5.28;;;15.80;99.90;;;;;;5084990;28;20036;-80
2022/07/22 00:23:10;;;;;;;16.48;5.53;;;15.80;99.90;;;;;;5083300;28;20043;-80
2022/07/22 00:25:36;;;;;;;16.42;5.72;;;15.80;99.90;;;;;;5087713;28;20410;-80
2022/07/22 00:28:04;;;;;;;17.88;5.75;;;15.80;99.90;;;;;;5074439;28;20040;-80
2022/07/22 00:30:30;;;;;;;12.18;6.07;;;15.90;99.90;;;;;;5089007;28;20876;-80
2022/07/22 00:32:55;;;;;;;10.15;5.22;;;15.80;99.90;;;;;;5084374;28;20051;-80
2022/07/22 00:35:21;;;;;;;16.60;6.18;;;15.90;99.90;;;;;;5083771;28;20167;-80
2022/07/22 00:37:47;;;;;;;14.65;6.00;;;15.90;99.90;;;;;;5088055;28;20162;-81
2022/07/22 00:40:13;;;;;;;13.68;6.10;;;15.90;99.90;;;;;;5075481;28;20570;-80
2022/07/22 00:42:39;;;;;;;13.15;5.72;;;15.80;99.90;;;;;;5096869;28;20052;-80
2022/07/22 00:45:06;;;;;;;17.90;4.70;;;15.90;99.90;;;;;;5078639;28;20220;-81
2022/07/22 00:47:32;;;;;;;13.02;5.45;;;15.80;99.90;;;;;;5079654;28;20035;-80
2022/07/22 00:49:58;;;;;;;11.98;4.45;;;15.90;99.90;;;;;;5094141;28;20047;-80
2022/07/22 00:52:25;;;;;;;10.98;4.70;;;15.80;99.90;;;;;;5073721;28;20184;-79
2022/07/22 00:54:51;;;;;;;12.63;4.82;;;15.80;99.90;;;;;;5080971;28;20078;-80
2022/07/22 00:57:17;;;;;;;12.55;4.70;;;15.80;99.90;;;;;;5085145;28;20108;-80
2022/07/22 00:59:43;;;;;;;14.32;3.95;;;15.70;99.90;;;;;;5097502;28;20183;-80
2022/07/22 01:02:12;;;;;;;11.45;4.07;;;15.70;28.10;;;;;;5090304;28;20114;-82
2022/07/22 01:04:47;;;;;;;13.50;4.25;;;15.70;1.00;;;;;;5070045;28;20040;-80
2022/07/22 01:07:16;;;;;;;15.55;4.43;;;15.80;1.00;;;;;;5061417;28;20075;-79
2022/07/22 01:09:43;;;;;;;13.98;4.85;;;15.70;1.00;;;;;;5068667;28;20043;-80
2022/07/22 01:12:09;;;;;;;9.38;3.60;;;15.70;1.00;;;;;;5062644;28;20036;-80
2022/07/22 01:14:35;;;;;;;9.43;4.00;;;15.70;1.00;;;;;;5089154;28;20047;-80
2022/07/22 01:17:00;;;;;;;11.45;4.03;;;15.70;1.00;;;;;;5086215;28;20500;-80
2022/07/22 01:19:26;;;;;;;12.60;4.15;;;15.60;1.00;;;;;;5078345;28;20036;-80
2022/07/22 01:21:52;;;;;;;8.73;3.70;;;15.60;1.00;;;;;;5084377;28;20123;-80
2022/07/22 01:24:18;;;;;;;8.35;3.50;;;15.60;1.00;;;;;;5091683;28;20043;-80
2022/07/22 01:26:44;;;;;;;10.60;3.83;;;15.60;99.90;;;;;;5097308;28;20078;-80
2022/07/22 01:29:10;;;;;;;12.18;3.42;;;15.60;99.90;;;;;;5099894;28;20102;-80
2022/07/22 01:31:35;;;;;;;10.68;3.50;;;15.70;99.90;;;;;;5087296;28;20479;-79
2022/07/22 01:34:01;;;;;;;9.60;3.97;;;15.60;99.90;;;;;;5075808;28;20043;-80
2022/07/22 01:36:27;;;;;;;8.00;3.40;;;15.60;99.90;;;;;;5094201;28;20050;-79
2022/07/22 01:38:53;;;;;;;8.85;3.65;;;15.60;99.90;;;;;;5092922;28;20149;-80
2022/07/22 01:41:18;;;;;;;11.10;3.40;;;15.60;99.90;;;;;;5072814;28;20222;-80
2022/07/22 01:43:44;;;;;;;15.73;3.42;;;15.60;1.00;;;;;;5093628;28;20494;-80
2022/07/22 01:46:10;;;;;;;14.30;3.45;;;15.50;99.90;;;;;;5078688;28;20534;-79
2022/07/22 01:48:36;;;;;;;9.85;3.30;;;15.50;99.90;;;;;;5075177;28;20044;-80
2022/07/22 01:51:02;;;;;;;7.10;2.95;;;15.50;99.90;;;;;;5090443;28;20761;-80
2022/07/22 01:53:28;;;;;;;9.13;3.42;;;15.50;99.90;;;;;;5085653;28;20122;-80
2022/07/22 01:55:54;;;;;;;9.00;2.90;;;15.40;99.90;;;;;;5083401;28;20575;-79
2022/07/22 01:58:20;;;;;;;12.27;2.60;;;15.40;99.90;;;;;;5091842;28;20040;-80
2022/07/22 02:00:45;;;;;;;7.85;2.75;;;15.40;99.90;;;;;;5093797;28;20040;-80
2022/07/22 02:03:11;;;;;;;9.55;3.10;;;15.40;99.90;;;;;;5096360;28;20046;-80
2022/07/22 02:05:40;;;;;;;9.65;2.83;;;15.40;99.90;;;;;;5068178;28;20042;-80
2022/07/22 02:08:08;;;;;;;7.78;2.80;;;15.40;99.90;;;;;;5076155;28;20522;-80
2022/07/22 02:10:35;;;;;;;10.52;3.10;;;15.40;99.90;;;;;;5086800;28;20101;-80
2022/07/22 02:13:01;;;;;;;5.65;3.08;;;15.40;99.90;;;;;;5092448;28;20039;-80
2022/07/22 02:15:27;;;;;;;8.05;2.70;;;15.40;99.90;;;;;;5085980;28;20047;-80
2022/07/22 02:17:53;;;;;;;6.15;2.65;;;15.40;99.90;;;;;;5069835;28;20468;-80
2022/07/22 02:20:20;;;;;;;9.48;2.85;;;15.50;99.90;;;;;;5078368;28;20036;-80
2022/07/22 02:22:45;;;;;;;10.52;3.40;;;15.40;99.90;;;;;;5094112;28;20036;-80
2022/07/22 02:25:11;;;;;;;8.25;2.90;;;15.40;99.90;;;;;;5094210;28;20047;-79
2022/07/22 02:27:38;;;;;;;11.20;3.20;;;15.40;99.90;;;;;;5102731;28;20055;-79
2022/07/22 02:30:04;;;;;;;8.88;2.45;;;15.40;99.90;;;;;;5083572;28;20395;-80
2022/07/22 02:32:30;;;;;;;10.10;3.05;;;15.40;99.90;;;;;;5096426;28;20508;-80
2022/07/22 02:34:56;;;;;;;7.13;2.97;;;15.40;99.90;;;;;;5092917;28;20044;-80
2022/07/22 02:37:22;;;;;;;7.72;2.63;;;15.40;99.90;;;;;;5097101;28;20066;-80
2022/07/22 02:39:47;;;;;;;10.60;2.83;;;15.40;99.90;;;;;;5079540;28;20031;-80
2022/07/22 02:42:13;;;;;;;11.40;3.15;;;15.40;99.90;;;;;;5097989;28;20239;-80
2022/07/22 02:44:39;;;;;;;8.07;2.90;;;15.40;99.90;;;;;;5074195;28;20304;-80
2022/07/22 02:47:04;;;;;;;6.22;2.50;;;15.30;99.90;;;;;;5073610;28;20067;-79
2022/07/22 02:49:30;;;;;;;9.82;2.92;;;15.30;99.90;;;;;;5083574;28;20050;-80
2022/07/22 02:51:56;;;;;;;9.10;2.60;;;15.40;99.90;;;;;;5087215;28;20277;-80
2022/07/22 02:54:21;;;;;;;10.20;2.85;;;15.30;99.90;;;;;;5091862;28;20126;-79
2022/07/22 02:56:47;;;;;;;4.63;2.28;;;15.30;99.90;;;;;;5092537;28;20055;-80
2022/07/22 02:59:13;;;;;;;5.90;2.45;;;15.30;99.90;;;;;;5078965;28;20036;-80
2022/07/22 03:01:38;;;;;;;6.93;2.72;;;15.30;99.90;;;;;;5067696;28;20063;-80
2022/07/22 03:04:04;;;;;;;12.10;2.63;;;15.30;99.90;;;;;;5092075;28;20204;-80
2022/07/22 03:06:30;;;;;;;7.00;2.30;;;15.30;99.90;;;;;;5086268;28;20048;-79
2022/07/22 03:08:56;;;;;;;8.10;2.40;;;15.30;99.90;;;;;;5092373;28;20578;-79
2022/07/22 03:11:21;;;;;;;5.30;2.42;;;15.30;99.90;;;;;;5081103;28;20048;-80
2022/07/22 03:13:47;;;;;;;8.68;2.03;;;15.30;99.90;;;;;;5083761;28;20501;-80
2022/07/22 03:16:13;;;;;;;9.60;2.45;;;15.30;1.00;;;;;;5091367;28;20115;-80
2022/07/22 03:18:38;;;;;;;9.40;2.75;;;15.30;20.10;;;;;;5091587;28;20575;-80
2022/07/22 03:21:04;;;;;;;5.53;2.00;;;15.30;1.00;;;;;;5092470;28;20062;-79
2022/07/22 03:23:30;;;;;;;8.15;2.38;;;15.30;1.00;;;;;;5085825;28;20042;-80
2022/07/22 03:25:56;;;;;;;6.10;2.28;;;15.30;1.00;;;;;;5083347;28;20193;-80
2022/07/22 03:28:22;;;;;;;6.47;1.83;;;15.30;1.00;;;;;;5095978;28;20492;-80
2022/07/22 03:30:48;;;;;;;9.40;2.20;;;15.30;1.00;;;;;;5090623;28;20463;-80
2022/07/22 03:33:14;;;;;;;6.03;2.17;;;15.20;1.00;;;;;;5076078;28;20043;-80
2022/07/22 03:35:40;;;;;;;5.65;2.00;;;15.30;99.90;;;;;;5080042;28;20055;-80
2022/07/22 03:38:06;;;;;;;5.88;2.00;;;15.30;99.90;;;;;;5083608;28;20139;-80
2022/07/22 03:40:32;;;;;;;7.25;2.00;;;15.30;99.90;;;;;;5092517;28;20105;-80
2022/07/22 03:42:58;;;;;;;7.38;2.20;;;15.30;99.90;;;;;;5091360;28;20054;-80
2022/07/22 03:45:24;;;;;;;8.70;2.50;;;15.30;1.00;;;;;;5070110;28;20051;-80
2022/07/22 03:47:49;;;;;;;6.35;2.13;;;15.30;99.90;;;;;;5091490;28;20621;-80
2022/07/22 03:50:15;;;;;;;6.50;1.90;;;15.30;99.90;;;;;;5064975;28;20524;-80
2022/07/22 03:52:41;;;;;;;6.93;2.17;;;15.20;1.00;;;;;;5095231;28;20055;-80
2022/07/22 03:55:07;;;;;;;8.63;2.78;;;15.20;1.00;;;;;;5075288;28;20523;-80
2022/07/22 03:57:33;;;;;;;3.42;2.25;;;15.20;1.00;;;;;;5094902;28;20487;-80
2022/07/22 03:59:58;;;;;;;8.55;2.85;;;15.20;1.00;;;;;;5085979;28;20040;-80
2022/07/22 04:02:24;;;;;;;8.07;2.30;;;15.20;1.00;;;;;;5068458;28;20458;-81
2022/07/22 04:04:53;;;;;;;5.55;2.10;;;15.20;1.00;;;;;;5070124;28;20140;-80
2022/07/22 04:07:18;;;;;;;4.32;2.03;;;15.20;25.20;;;;;;5088840;28;20040;-80
2022/07/22 04:09:44;;;;;;;7.55;2.50;;;15.20;16.30;;;;;;5066545;28;20043;-79
2022/07/22 04:12:09;;;;;;;5.78;2.13;;;15.20;46.90;;;;;;5066745;28;20040;-79
2022/07/22 04:14:35;;;;;;;4.20;2.03;;;15.20;74.00;;;;;;5069324;28;20047;-80
2022/07/22 04:17:01;;;;;;;8.70;2.40;;;15.20;1.00;;;;;;5091884;28;20540;-80
2022/07/22 04:19:26;;;;;;;7.38;2.75;;;15.20;68.30;;;;;;5088571;28;20051;-80
2022/07/22 04:21:52;;;;;;;6.65;2.55;;;15.30;53.50;;;;;;5076175;28;20083;-80
2022/07/22 04:24:21;;;;;;;6.05;2.30;;;15.20;46.70;;;;;;5083960;28;20074;-80
2022/07/22 04:26:47;;;;;;;8.93;2.38;;;15.20;43.70;;;;;;5092707;28;20127;-80
2022/07/22 04:29:13;;;;;;;5.72;2.50;;;15.20;6.30;;;;;;5086362;28;20131;-80
2022/07/22 04:31:38;;;;;;;6.20;2.20;;;15.30;47.40;;;;;;5086645;28;20050;-79
2022/07/22 04:34:04;;;;;;;6.07;2.30;;;15.30;74.40;;;;;;5086324;28;20059;-80
2022/07/22 04:36:30;;;;;;;4.07;2.00;;;15.30;69.80;;;;;;5086118;28;20048;-80
2022/07/22 04:38:55;;;;;;;8.85;2.35;;;15.30;70.40;;;;;;5088308;28;20098;-80
2022/07/22 04:41:24;;;;;;;5.07;2.40;;;15.30;71.20;;;;;;5068724;28;20038;-80
2022/07/22 04:43:50;;;;;;;8.85;2.40;;;15.30;51.40;;;;;;5065574;28;20143;-80
2022/07/22 04:46:15;;;;;;;10.88;2.45;;;15.30;80.00;;;;;;5090488;28;20055;-80
2022/07/22 04:48:44;;;;;;;8.43;2.67;;;15.40;62.40;;;;;;5069449;28;20047;-80
2022/07/22 04:51:10;;;;;;;4.60;2.38;;;15.40;41.40;;;;;;5084999;28;20056;-80
2022/07/22 04:53:36;;;;;;;7.75;2.60;;;15.40;25.90;;;;;;5086236;28;20426;-80
2022/07/22 04:56:01;;;;;;;4.15;1.98;;;15.40;60.70;;;;;;5073392;28;20032;-80
2022/07/22 04:58:27;;;;;;;7.93;2.42;;;15.40;37.50;;;;;;5070330;28;20598;-80
2022/07/22 05:00:54;;;;;;;5.40;2.20;;;15.40;12.50;;;;;;5085952;28;20139;-80
2022/07/22 05:03:24;;;;;;;7.93;2.22;;;15.40;1.00;;;;;;5082864;28;20047;-80
2022/07/22 05:05:50;;;;;;;9.77;2.65;;;15.50;1.00;;;;;;5085401;28;20130;-80
2022/07/22 05:08:15;;;;;;;4.43;2.38;;;15.50;1.00;;;;;;5104295;28;20134;-79
2022/07/22 05:10:41;;;;;;;8.40;1.92;;;15.60;1.00;;;;;;5100898;28;20518;-79
2022/07/22 05:13:07;;;;;;;7.13;2.55;;;15.50;1.00;;;;;;5080072;28;20081;-79
2022/07/22 05:15:33;;;;;;;3.22;1.92;;;15.60;1.00;;;;;;5077514;28;20493;-80
2022/07/22 05:17:58;;;;;;;7.38;2.15;;;15.60;99.90;;;;;;5095097;28;20051;-80
2022/07/22 05:20:24;;;;;;;6.03;2.30;;;15.60;1.00;;;;;;5083388;28;20044;-80
2022/07/22 05:22:50;;;;;;;10.13;2.10;;;15.70;1.00;;;;;;5096759;28;20371;-80
2022/07/22 05:25:15;;;;;;;8.18;2.22;;;15.70;1.00;;;;;;5094549;28;20043;-79
2022/07/22 05:27:52;;;;;;;8.15;2.38;;;15.70;1.00;;;;;;5097231;28;20040;-80
2022/07/22 05:30:18;;;;;;;4.20;1.90;;;15.80;1.00;;;;;;5085447;28;20466;-80
2022/07/22 05:32:44;;;;;;;6.97;2.40;;;15.80;1.00;;;;;;5086566;28;20487;-79
2022/07/22 05:35:10;;;;;;;7.00;2.20;;;15.80;1.00;;;;;;5087984;28;20040;-80
2022/07/22 05:37:35;;;;;;;6.95;2.13;;;15.80;1.00;;;;;;5094350;28;20119;-80
2022/07/22 05:40:01;;;;;;;4.90;2.00;;;15.80;1.00;;;;;;5072367;28;20043;-81
2022/07/22 05:42:30;;;;;;;8.13;2.28;;;15.80;99.90;;;;;;5101218;28;20035;-80
2022/07/22 05:44:55;;;;;;;5.72;2.00;;;15.90;99.90;;;;;;5079833;27;20101;-79
2022/07/22 05:47:21;;;;;;;6.97;2.05;;;15.90;99.90;;;;;;5096645;27;20272;-80
2022/07/22 05:49:49;;;;;;;5.18;2.28;;;16.00;1.00;;;;;;5078489;27;20067;-80
2022/07/22 05:52:15;;;;;;;6.00;1.90;;;16.00;99.90;;;;;;5084687;28;20120;-80
2022/07/22 05:54:41;;;;;;;6.32;2.30;;;16.10;99.90;;;;;;5088016;27;20218;-80
2022/07/22 05:57:09;;;;;;;7.85;2.03;;;16.10;99.90;;;;;;5075915;27;20069;-80
2022/07/22 05:59:36;;;;;;;5.45;1.73;;;16.20;1.00;;;;;;5079068;27;20062;-80
2022/07/22 06:02:02;;;;;;;5.35;1.80;;;16.10;99.90;;;;;;5093748;27;20036;-80
2022/07/22 06:04:28;;;;;;;7.25;2.03;;;16.10;99.90;;;;;;5068755;28;20498;-80
2022/07/22 06:06:54;;;;;;;5.57;2.08;;;16.20;99.90;;;;;;5075228;27;20039;-80
2022/07/22 06:09:19;;;;;;;5.30;2.00;;;16.20;99.90;;;;;;5077521;27;20402;-80
2022/07/22 06:11:48;;;;;;;5.00;2.15;;;16.20;99.90;;;;;;5079932;27;20043;-80
2022/07/22 06:14:14;;;;;;;4.47;1.90;;;16.20;99.90;;;;;;5099120;27;20336;-80
2022/07/22 06:16:39;;;;;;;4.97;2.15;;;16.30;99.90;;;;;;5099557;27;20099;-80
2022/07/22 06:19:05;;;;;;;4.22;2.30;;;16.30;99.90;;;;;;5092316;27;20035;-80
2022/07/22 06:21:31;;;;;;;7.13;2.35;;;16.50;99.90;;;;;;5099588;27;20044;-79
2022/07/22 06:23:57;;;;;;;8.80;2.45;;;16.50;99.90;;;;;;5080473;27;20043;-80
2022/07/22 06:26:23;;;;;;;4.80;2.10;;;16.50;1.00;;;;;;5101717;27;20395;-80
2022/07/22 06:28:49;;;;;;;6.68;2.38;;;16.60;99.90;;;;;;5087158;27;20043;-80
2022/07/22 06:31:16;;;;;;;6.30;2.25;;;16.70;99.90;;;;;;5054617;28;20288;-80
2022/07/22 06:33:42;;;;;;;7.38;2.35;;;16.70;99.90;;;;;;5092568;27;20043;-80
2022/07/22 06:36:08;;;;;;;5.03;2.35;;;16.80;99.90;;;;;;5076726;27;20040;-80
2022/07/22 06:38:37;;;;;;;6.13;2.05;;;16.80;99.90;;;;;;5088544;28;20056;-80
2022/07/22 06:41:03;;;;;;;7.03;2.40;;;16.80;99.90;;;;;;5072530;27;20049;-80
2022/07/22 06:43:28;;;;;;;10.38;2.55;;;16.90;99.90;;;;;;5080579;27;20047;-80
2022/07/22 06:45:54;;;;;;;7.75;2.40;;;16.90;99.90;;;;;;5096362;27;20082;-81
2022/07/22 06:48:20;;;;;;;5.75;1.88;;;16.90;99.90;;;;;;5094349;27;20043;-80
2022/07/22 06:50:46;;;;;;;6.03;2.13;;;17.00;99.90;;;;;;5075656;27;20619;-81
2022/07/22 06:53:11;;;;;;;6.38;2.20;;;17.00;99.90;;;;;;5093053;27;20285;-80
2022/07/22 06:55:37;;;;;;;8.35;2.78;;;17.20;99.90;;;;;;5077042;27;20043;-80
2022/07/22 06:58:03;;;;;;;4.90;2.13;;;17.30;99.90;;;;;;5081614;27;20414;-80
2022/07/22 07:00:29;;;;;;;7.75;2.35;;;17.30;99.90;;;;;;5102497;27;20043;-80
2022/07/22 07:03:01;;;;;;;4.25;2.53;;;17.30;99.90;;;;;;5088699;27;20733;-80
2022/07/22 07:05:29;;;;;;;6.20;2.20;;;17.20;99.90;;;;;;5097032;27;20623;-80
2022/07/22 07:07:56;;;;;;;7.28;2.22;;;17.30;99.90;;;;;;5096461;27;20123;-80
2022/07/22 07:10:22;;;;;;;5.45;1.90;;;17.40;99.90;;;;;;5082532;27;20104;-80
2022/07/22 07:12:48;;;;;;;9.25;2.20;;;17.20;99.90;;;;;;5082002;27;20049;-80
2022/07/22 07:15:14;;;;;;;3.92;1.85;;;17.30;99.90;;;;;;5086460;27;20126;-80
2022/07/22 07:17:40;;;;;;;6.07;1.98;;;17.40;99.90;;;;;;5097374;27;20035;-81
2022/07/22 07:20:06;;;;;;;7.70;2.00;;;17.20;99.90;;;;;;5075469;27;20349;-80
2022/07/22 07:22:32;;;;;;;5.13;1.60;;;17.30;99.90;;;;;;5092277;27;20039;-80
2022/07/22 07:25:08;;;;;;;5.50;1.80;;;17.30;99.90;;;;;;5076972;28;20075;-80
2022/07/22 07:27:34;;;;;;;7.68;2.20;;;17.50;99.90;;;;;;5072558;28;20875;-80
2022/07/22 07:30:00;;;;;;;7.10;2.00;;;17.60;65.70;;;;;;5075943;28;20031;-80
2022/07/22 07:32:26;;;;;;;5.18;2.03;;;17.50;47.60;;;;;;5076622;27;20413;-80
2022/07/22 07:34:54;;;;;;;6.97;1.77;;;17.70;71.20;;;;;;5092851;27;20170;-80
2022/07/22 07:37:20;;;;;;;4.80;1.65;;;17.80;94.40;;;;;;5088383;27;20444;-79
2022/07/22 07:39:46;;;;;;;8.73;1.80;;;17.70;99.90;;;;;;5099801;27;20039;-80
2022/07/22 07:42:11;;;;;;;4.15;1.55;;;17.70;99.90;;;;;;5078761;27;20126;-80
2022/07/22 07:44:39;;;;;;;5.72;1.83;;;17.80;15.70;;;;;;5088749;28;20960;-80
2022/07/22 07:47:04;;;;;;;6.78;1.50;;;17.80;16.40;;;;;;5099710;28;20066;-81
2022/07/22 07:49:30;;;;;;;7.18;1.55;;;17.80;1.00;;;;;;5065231;28;20044;-80
2022/07/22 07:51:56;;;;;;;5.13;1.85;;;17.60;1.00;;;;;;5089848;28;20483;-80
2022/07/22 07:54:22;;;;;;;5.10;1.92;;;17.70;99.90;;;;;;5092205;28;20043;-80
2022/07/22 07:56:47;;;;;;;5.85;2.00;;;17.70;1.00;;;;;;5092901;28;20040;-80
2022/07/22 07:59:17;;;;;;;6.38;1.48;;;17.60;68.90;;;;;;5081961;28;20036;-80
2022/07/22 08:01:43;;;;;;;4.93;1.90;;;17.60;1.00;;;;;;5089625;28;20131;-80
2022/07/22 08:04:08;;;;;;;13.40;2.35;;;17.60;1.00;;;;;;5089276;28;20127;-80
2022/07/22 08:06:34;;;;;;;5.70;1.70;;;17.70;25.50;;;;;;5093829;28;20518;-80
2022/07/22 08:09:00;;;;;;;5.10;1.80;;;17.50;8.30;;;;;;5080329;28;20086;-80
2022/07/22 08:11:25;;;;;;;5.00;1.65;;;17.30;1.00;;;;;;5084658;28;20043;-80
2022/07/22 08:13:51;;;;;;;5.35;1.58;;;17.40;88.90;;;;;;5078320;28;20090;-80
2022/07/22 08:16:20;;;;;;;3.45;1.67;;;17.40;1.00;;;;;;5091194;28;20043;-80
2022/07/22 08:18:46;;;;;;;6.30;2.33;;;17.50;80.80;;;;;;5092377;28;20297;-80
2022/07/22 08:21:14;;;;;;;5.80;1.50;;;17.70;52.70;;;;;;5081323;28;20047;-80
2022/07/22 08:23:40;;;;;;;4.03;1.50;;;17.60;1.00;;;;;;5085395;28;20031;-80
2022/07/22 08:26:06;;;;;;;4.05;1.70;;;17.70;9.40;;;;;;5095820;28;20118;-81
2022/07/22 08:28:34;;;;;;;5.55;1.60;;;17.80;76.20;;;;;;5091622;28;20074;-80
2022/07/22 08:31:00;;;;;;;9.52;1.90;;;17.70;54.80;;;;;;5082740;28;20052;-80
2022/07/22 08:33:26;;;;;;;6.20;2.00;;;17.90;99.90;;;;;;5087438;28;20351;-81
2022/07/22 08:35:51;;;;;;;7.70;2.00;;;17.90;37.50;;;;;;5099897;28;20132;-80
2022/07/22 08:38:17;;;;;;;5.57;1.65;;;17.80;10.90;;;;;;5099111;28;20505;-80
2022/07/22 08:40:43;;;;;;;3.55;1.60;;;17.80;36.00;;;;;;5080072;28;20497;-80
2022/07/22 08:43:09;;;;;;;5.47;1.95;;;17.70;99.90;;;;;;5095076;28;20048;-80
2022/07/22 08:45:35;;;;;;;6.55;1.73;;;17.70;31.50;;;;;;5068301;28;20240;-80
2022/07/22 08:48:02;;;;;;;7.35;1.50;;;17.90;1.00;;;;;;5100603;28;20133;-80
2022/07/22 08:50:32;;;;;;;6.30;1.50;;;17.90;1.00;;;;;;5093829;28;20043;-80
2022/07/22 08:52:58;;;;;;;2.85;1.27;;;17.90;1.00;;;;;;5095176;28;20145;-81
2022/07/22 08:55:25;;;;;;;5.65;1.35;;;18.00;1.00;;;;;;5096285;28;20122;-80
2022/07/22 08:57:51;;;;;;;4.68;1.52;;;18.30;1.00;;;;;;5101034;28;20395;-80
2022/07/22 09:00:19;;;;;;;2.45;1.25;;;18.40;1.00;;;;;;5081113;28;20036;-80
2022/07/22 09:02:45;;;;;;;3.53;1.38;;;18.40;1.00;;;;;;5077953;28;20410;-80
2022/07/22 09:05:16;;;;;;;5.03;1.33;;;18.30;1.00;;;;;;5094588;28;20044;-80
2022/07/22 09:07:46;;;;;;;5.03;1.77;;;18.40;1.00;;;;;;5096222;28;20061;-80
2022/07/22 09:10:19;;;;;;;3.50;1.27;;;18.40;44.90;;;;;;5083397;28;20048;-80
2022/07/22 09:12:58;;;;;;;5.15;1.60;;;18.40;1.00;;;;;;5093585;28;20109;-80
2022/07/22 09:15:30;;;;;;;2.97;1.27;;;18.50;1.00;;;;;;5095820;28;20136;-80
2022/07/22 09:17:58;;;;;;;5.28;1.60;;;18.50;1.00;;;;;;5084972;28;20051;-80
2022/07/22 09:20:24;;;;;;;5.45;1.60;;;18.20;1.00;;;;;;5076967;28;20484;-80
2022/07/22 09:22:51;;;;;;;5.53;1.52;;;18.00;1.00;;;;;;5089416;28;20402;-80
2022/07/22 09:25:36;;;;;;;12.05;1.75;;;18.10;1.00;;;;;;5071700;28;20096;-80
2022/07/22 09:28:05;;;;;;;6.32;1.58;;;17.90;65.40;;;;;;5055151;28;20044;-81
2022/07/22 09:30:33;;;;;;;9.75;1.88;;;17.80;99.90;;;;;;5060781;28;20051;-80
2022/07/22 09:32:59;;;;;;;8.30;1.90;;;17.80;99.90;;;;;;5069983;28;20131;-80
2022/07/22 09:35:25;;;;;;;7.88;1.92;;;17.80;99.90;;;;;;5087144;28;20127;-80
2022/07/22 09:37:57;;;;;;;7.22;1.58;;;17.70;99.90;;;;;;5072028;28;20043;-80
2022/07/22 09:40:25;;;;;;;5.97;1.60;;;17.80;99.90;;;;;;5072418;28;20040;-80
2022/07/22 09:42:52;;;;;;;6.50;1.58;;;17.60;99.90;;;;;;5085010;27;20062;-80
2022/07/22 09:45:20;;;;;;;5.72;1.52;;;17.60;99.90;;;;;;5090991;28;20054;-80
2022/07/22 09:47:47;;;;;;;3.80;1.58;;;17.60;99.90;;;;;;5064995;28;20105;-80
2022/07/22 09:50:29;;;;;;;3.17;1.40;;;17.60;99.90;;;;;;5081847;28;20047;-80
2022/07/22 09:52:57;;;;;;;4.35;1.50;;;17.70;99.90;;;;;;5065990;28;20053;-81
2022/07/22 09:55:25;;;;;;;4.32;1.35;;;17.70;99.90;;;;;;5081183;28;20052;-80
2022/07/22 09:57:52;;;;;;;5.43;1.65;;;17.60;99.10;;;;;;5073196;28;20039;-80
2022/07/22 10:00:20;;;;;;;4.10;1.17;;;17.60;99.90;;;;;;5092654;27;20437;-80
2022/07/22 10:02:46;;;;;;;4.97;1.10;;;17.80;1.00;;;;;;5102807;27;20163;-80
2022/07/22 10:05:13;;;;;;;3.55;1.02;;;17.80;1.00;;;;;;5103413;27;20111;-80
2022/07/22 10:07:42;;;;;;;3.38;1.15;;;18.00;64.70;;;;;;5099153;27;20035;-80
2022/07/22 10:10:09;;;;;;;4.32;1.30;;;17.90;1.00;;;;;;5073795;27;20050;-80
2022/07/22 10:12:37;;;;;;;2.58;0.90;;;18.10;1.00;;;;;;5088294;28;20059;-80
2022/07/22 10:15:03;;;;;;;3.80;1.10;;;18.20;1.00;;;;;;5062737;28;20180;-80
2022/07/22 10:17:29;;;;;;;2.10;1.00;;;18.20;1.00;;;;;;5067352;28;20043;-80
2022/07/22 10:19:57;;;;;;;2.10;0.93;;;18.40;1.00;;;;;;5075704;27;20039;-80
2022/07/22 10:22:45;;;;;;;3.50;1.05;;;18.40;1.00;;;;;;5097300;27;20042;-80
2022/07/22 10:25:12;;;;;;;2.72;0.90;;;18.60;1.00;;;;;;5091340;27;20423;-80
2022/07/22 10:27:55;;;;;;;2.70;0.90;;;18.30;1.00;;;;;;5088762;27;20099;-80
2022/07/22 10:30:36;;;;;;;2.30;1.08;;;18.30;1.00;;;;;;5101974;27;20125;-80
2022/07/22 10:33:09;;;;;;;4.47;1.00;;;18.50;1.00;;;;;;5092506;27;20032;-80
2022/07/22 10:35:37;;;;;;;2.55;1.00;;;18.70;99.90;;;;;;5075640;27;20047;-80
2022/07/22 10:38:05;;;;;;;6.05;1.23;;;18.50;99.90;;;;;;5079785;27;20031;-80
2022/07/22 10:40:45;;;;;;;5.05;0.95;;;19.00;99.90;;;;;;5088230;27;20039;-80
2022/07/22 10:43:15;;;;;;;2.25;1.10;;;18.80;99.90;;;;;;5098435;27;20195;-80
2022/07/22 10:45:52;;;;;;;3.33;0.90;;;19.20;1.00;;;;;;5097846;27;20266;-80
2022/07/22 10:48:30;;;;;;;1.92;0.80;;;19.40;99.90;;;;;;5098236;27;20126;-80
2022/07/22 10:51:13;;;;;;;2.38;0.90;;;19.50;99.90;;;;;;5082897;27;20436;-80
2022/07/22 10:53:59;;;;;;;4.20;0.93;;;19.60;99.90;;;;;;5093953;27;20598;-80
2022/07/22 10:56:32;;;;;;;4.35;1.10;;;19.80;99.90;;;;;;5095626;27;20044;-80
2022/07/22 10:58:59;;;;;;;7.13;1.92;;;20.20;99.90;;;;;;5081528;27;20035;-80
2022/07/22 11:01:30;;;;;;;2.47;0.88;;;20.40;99.90;;;;;;5055548;28;20090;-80
2022/07/22 11:04:07;;;;;;;1.75;0.73;;;20.10;99.90;;;;;;5050329;28;20116;-80
2022/07/22 11:06:33;;;;;;;2.83;0.90;;;20.30;99.90;;;;;;5094105;27;20351;-80
2022/07/22 11:09:05;;;;;;;4.65;1.30;;;20.50;99.90;;;;;;5081342;27;20043;-80
2022/07/22 11:11:39;;;;;;;3.63;1.13;;;20.40;99.90;;;;;;5076062;27;20035;-80
2022/07/22 11:14:35;;;;;;;2.40;0.90;;;19.40;99.90;;;;;;5087419;27;20051;-80
2022/07/22 11:17:06;;;;;;;3.42;1.05;;;19.40;99.90;;;;;;5100115;27;20103;-80
2022/07/22 11:19:32;;;;;;;2.15;1.08;;;19.50;99.90;;;;;;5075556;28;20100;-80
2022/07/22 11:22:05;;;;;;;3.75;1.30;;;19.50;99.90;;;;;;5076499;27;20031;-81
2022/07/22 11:24:31;;;;;;;3.22;1.10;;;19.70;99.90;;;;;;5063698;27;20437;-80
2022/07/22 11:27:01;;;;;;;5.80;1.45;;;19.80;99.90;;;;;;5057290;28;20113;-80
2022/07/22 11:29:29;;;;;;;5.57;1.20;;;19.80;99.90;;;;;;5076386;27;20047;-80
2022/07/22 11:31:57;;;;;;;4.10;1.17;;;19.90;99.90;;;;;;5096148;27;20593;-80
2022/07/22 11:34:24;;;;;;;4.45;1.05;;;20.40;99.90;;;;;;5077470;27;20039;-80
2022/07/22 11:36:54;;;;;;;2.85;1.30;;;20.20;99.90;;;;;;5093840;28;20505;-80
2022/07/22 11:39:22;;;;;;;5.25;1.48;;;20.00;99.90;;;;;;5094449;28;20032;-80
2022/07/22 11:41:49;;;;;;;2.90;1.10;;;20.20;99.90;;;;;;5077635;28;20040;-80
2022/07/22 11:44:19;;;;;;;4.75;1.25;;;20.40;99.90;;;;;;5080496;27;20070;-80
2022/07/22 11:46:45;;;;;;;2.67;0.93;;;20.20;99.90;;;;;;5088349;28;20040;-80
2022/07/22 11:49:14;;;;;;;2.85;1.08;;;20.40;99.90;;;;;;5083856;27;20186;-80
2022/07/22 11:51:40;;;;;;;4.80;1.20;;;20.50;99.90;;;;;;5074302;27;20047;-80
2022/07/22 11:54:06;;;;;;;2.60;1.00;;;20.80;99.90;;;;;;5096594;27;20043;-80
2022/07/22 11:56:32;;;;;;;3.15;1.13;;;20.40;99.90;;;;;;5083339;28;20158;-80
2022/07/22 11:59:02;;;;;;;3.40;1.27;;;20.60;99.90;;;;;;5078752;27;20032;-80
2022/07/22 12:01:29;;;;;;;3.58;1.67;;;19.90;99.90;;;;;;5096126;28;20051;-81
2022/07/22 12:03:58;;;;;;;3.03;1.05;;;20.30;99.90;;;;;;5071808;27;20114;-81
2022/07/22 12:06:25;;;;;;;3.65;1.10;;;20.40;99.90;;;;;;5091328;28;20407;-80
2022/07/22 12:08:55;;;;;;;3.03;1.10;;;20.30;99.90;;;;;;5101115;28;20155;-80
2022/07/22 12:11:24;;;;;;;1.25;1.05;;;20.60;99.90;;;;;;5078471;28;20039;-80
2022/07/22 12:13:51;;;;;;;2.10;1.15;;;20.30;99.90;;;;;;5099637;28;20039;-80
2022/07/22 12:16:22;;;;;;;3.92;1.00;;;20.10;99.90;;;;;;5079273;28;20054;-80
2022/07/22 12:18:53;;;;;;;5.50;1.13;;;20.40;99.90;;;;;;5078311;28;20051;-80
2022/07/22 12:21:21;;;;;;;3.15;1.05;;;20.30;99.90;;;;;;5086678;28;20122;-80
2022/07/22 12:23:52;;;;;;;1.98;1.05;;;20.40;99.90;;;;;;5085927;28;20042;-80
2022/07/22 12:26:17;;;;;;;3.25;0.93;;;20.50;99.90;;;;;;5076698;28;20038;-81
2022/07/22 12:28:43;;;;;;;6.00;1.27;;;20.60;99.90;;;;;;5076145;28;20845;-81
2022/07/22 12:31:09;;;;;;;2.80;0.98;;;20.40;99.90;;;;;;5083133;28;20043;-80
2022/07/22 12:33:37;;;;;;;1.67;1.10;;;20.40;99.90;;;;;;5086356;28;20083;-80
2022/07/22 12:36:06;;;;;;;2.00;0.80;;;20.50;99.90;;;;;;5082848;28;20127;-80
2022/07/22 12:38:32;;;;;;;1.85;1.08;;;20.40;99.90;;;;;;5080069;28;20035;-80
2022/07/22 12:41:21;;;;;;;2.33;1.08;;;19.80;99.90;;;;;;5096693;28;20062;-81
2022/07/22 12:43:51;;;;;;;1.92;0.90;;;20.20;99.90;;;;;;5100828;28;20091;-80
2022/07/22 12:46:16;;;;;;;1.95;0.93;;;20.40;99.90;;;;;;5082331;28;20086;-80
2022/07/22 12:48:54;;;;;;;2.42;0.95;;;20.40;99.90;;;;;;5071509;28;20071;-80